sensor_id;sensor_type;location;lat;lon;timestamp;P1;durP1;ratioP1;P2;durP2;ratioP2
61572;SDS011;47465;43.094;12.434;2023-06-22T00:00:43;32.25;;;14.05;;
61572;SDS011;47465;43.094;12.434;2023-06-22T00:03:09;29.75;;;14.15;;
61572;SDS011;47465;43.094;12.434;2023-06-22T00:05:35;32.75;;;14.90;;
61572;SDS011;47465;43.094;12.434;2023-06-22T00:08:02;29.13;;;14.15;;
61572;SDS011;47465;43.094;12.434;2023-06-22T00:12:57;31.52;;;14.43;;
61572;SDS011;47465;43.094;12.434;2023-06-22T00:15:23;28.67;;;14.63;;
61572;SDS011;47465;43.094;12.434;2023-06-22T00:17:49;30.65;;;14.90;;
61572;SDS011;47465;43.094;12.434;2023-06-22T00:20:15;27.75;;;14.05;;
61572;SDS011;47465;43.094;12.434;2023-06-22T00:22:42;24.35;;;13.57;;
61572;SDS011;47465;43.094;12.434;2023-06-22T00:25:08;29.90;;;14.40;;
61572;SDS011;47465;43.094;12.434;2023-06-22T00:27:34;25.83;;;13.55;;
61572;SDS011;47465;43.094;12.434;2023-06-22T00:30:02;29.35;;;14.20;;
61572;SDS011;47465;43.094;12.434;2023-06-22T00:32:28;27.50;;;13.88;;
61572;SDS011;47465;43.094;12.434;2023-06-22T00:34:54;26.48;;;13.73;;
61572;SDS011;47465;43.094;12.434;2023-06-22T00:37:20;23.88;;;13.07;;
61572;SDS011;47465;43.094;12.434;2023-06-22T00:39:50;23.27;;;13.63;;
61572;SDS011;47465;43.094;12.434;2023-06-22T00:42:16;25.55;;;13.75;;
61572;SDS011;47465;43.094;12.434;2023-06-22T00:44:42;21.20;;;12.02;;
61572;SDS011;47465;43.094;12.434;2023-06-22T00:47:11;26.50;;;12.68;;
61572;SDS011;47465;43.094;12.434;2023-06-22T00:52:04;20.38;;;11.32;;
61572;SDS011;47465;43.094;12.434;2023-06-22T00:54:34;21.83;;;11.70;;
61572;SDS011;47465;43.094;12.434;2023-06-22T00:57:01;21.77;;;12.38;;
61572;SDS011;47465;43.094;12.434;2023-06-22T00:59:27;18.23;;;10.93;;
61572;SDS011;47465;43.094;12.434;2023-06-22T01:01:53;26.13;;;11.25;;
61572;SDS011;47465;43.094;12.434;2023-06-22T01:04:21;21.58;;;11.00;;
61572;SDS011;47465;43.094;12.434;2023-06-22T01:06:51;21.08;;;12.27;;
61572;SDS011;47465;43.094;12.434;2023-06-22T01:09:26;19.45;;;11.02;;
61572;SDS011;47465;43.094;12.434;2023-06-22T01:11:57;21.27;;;11.38;;
61572;SDS011;47465;43.094;12.434;2023-06-22T01:14:27;22.67;;;10.95;;
61572;SDS011;47465;43.094;12.434;2023-06-22T01:16:58;22.23;;;11.40;;
61572;SDS011;47465;43.094;12.434;2023-06-22T01:19:34;17.02;;;10.10;;
61572;SDS011;47465;43.094;12.434;2023-06-22T01:22:04;18.30;;;10.43;;
61572;SDS011;47465;43.094;12.434;2023-06-22T01:24:37;17.52;;;10.60;;
61572;SDS011;47465;43.094;12.434;2023-06-22T01:27:20;15.00;;;10.02;;
61572;SDS011;47465;43.094;12.434;2023-06-22T01:29:58;16.42;;;9.70;;
61572;SDS011;47465;43.094;12.434;2023-06-22T01:32:28;15.10;;;9.63;;
61572;SDS011;47465;43.094;12.434;2023-06-22T01:34:55;16.17;;;9.48;;
61572;SDS011;47465;43.094;12.434;2023-06-22T01:37:22;13.23;;;9.20;;
61572;SDS011;47465;43.094;12.434;2023-06-22T01:39:48;11.80;;;8.50;;
61572;SDS011;47465;43.094;12.434;2023-06-22T01:42:15;14.80;;;9.65;;
61572;SDS011;47465;43.094;12.434;2023-06-22T01:44:42;14.18;;;9.60;;
61572;SDS011;47465;43.094;12.434;2023-06-22T01:47:10;15.43;;;9.13;;
61572;SDS011;47465;43.094;12.434;2023-06-22T01:49:39;14.50;;;8.90;;
61572;SDS011;47465;43.094;12.434;2023-06-22T01:52:06;13.27;;;9.20;;
61572;SDS011;47465;43.094;12.434;2023-06-22T01:54:32;10.75;;;7.80;;
61572;SDS011;47465;43.094;12.434;2023-06-22T01:56:58;11.38;;;7.93;;
61572;SDS011;47465;43.094;12.434;2023-06-22T01:59:25;12.35;;;8.73;;
61572;SDS011;47465;43.094;12.434;2023-06-22T02:01:56;13.85;;;8.18;;
61572;SDS011;47465;43.094;12.434;2023-06-22T02:04:27;14.10;;;8.43;;
61572;SDS011;47465;43.094;12.434;2023-06-22T02:07:00;13.00;;;8.60;;
61572;SDS011;47465;43.094;12.434;2023-06-22T02:09:31;12.00;;;8.07;;
61572;SDS011;47465;43.094;12.434;2023-06-22T02:11:58;13.80;;;8.52;;
61572;SDS011;47465;43.094;12.434;2023-06-22T02:14:27;10.18;;;7.68;;
61572;SDS011;47465;43.094;12.434;2023-06-22T02:16:54;11.23;;;8.15;;
61572;SDS011;47465;43.094;12.434;2023-06-22T02:19:22;11.20;;;7.05;;
61572;SDS011;47465;43.094;12.434;2023-06-22T02:21:50;13.98;;;7.78;;
61572;SDS011;47465;43.094;12.434;2023-06-22T02:24:15;12.40;;;7.97;;
61572;SDS011;47465;43.094;12.434;2023-06-22T02:26:42;14.07;;;7.93;;
61572;SDS011;47465;43.094;12.434;2023-06-22T02:29:09;12.75;;;8.98;;
61572;SDS011;47465;43.094;12.434;2023-06-22T02:31:35;12.10;;;8.10;;
61572;SDS011;47465;43.094;12.434;2023-06-22T02:34:01;13.07;;;7.95;;
61572;SDS011;47465;43.094;12.434;2023-06-22T02:36:27;12.20;;;7.63;;
61572;SDS011;47465;43.094;12.434;2023-06-22T02:38:57;13.57;;;8.07;;
61572;SDS011;47465;43.094;12.434;2023-06-22T02:41:26;14.18;;;8.27;;
61572;SDS011;47465;43.094;12.434;2023-06-22T02:43:52;13.82;;;8.32;;
61572;SDS011;47465;43.094;12.434;2023-06-22T02:46:18;12.02;;;7.57;;
61572;SDS011;47465;43.094;12.434;2023-06-22T02:48:44;10.18;;;7.65;;
61572;SDS011;47465;43.094;12.434;2023-06-22T02:51:09;13.05;;;8.10;;
61572;SDS011;47465;43.094;12.434;2023-06-22T02:53:35;12.98;;;7.68;;
61572;SDS011;47465;43.094;12.434;2023-06-22T02:56:03;11.02;;;7.72;;
61572;SDS011;47465;43.094;12.434;2023-06-22T02:58:32;15.30;;;8.10;;
61572;SDS011;47465;43.094;12.434;2023-06-22T03:01:04;14.48;;;8.73;;
61572;SDS011;47465;43.094;12.434;2023-06-22T03:03:30;12.18;;;7.95;;
61572;SDS011;47465;43.094;12.434;2023-06-22T03:05:55;15.75;;;9.00;;
61572;SDS011;47465;43.094;12.434;2023-06-22T03:08:21;11.40;;;7.28;;
61572;SDS011;47465;43.094;12.434;2023-06-22T03:10:47;12.48;;;7.97;;
61572;SDS011;47465;43.094;12.434;2023-06-22T03:13:14;16.27;;;8.57;;
61572;SDS011;47465;43.094;12.434;2023-06-22T03:15:40;12.07;;;8.05;;
61572;SDS011;47465;43.094;12.434;2023-06-22T03:18:06;14.50;;;8.55;;
61572;SDS011;47465;43.094;12.434;2023-06-22T03:20:32;12.88;;;8.60;;
61572;SDS011;47465;43.094;12.434;2023-06-22T03:22:58;12.57;;;8.35;;
61572;SDS011;47465;43.094;12.434;2023-06-22T03:25:25;15.25;;;8.55;;
61572;SDS011;47465;43.094;12.434;2023-06-22T03:27:50;12.55;;;8.15;;
61572;SDS011;47465;43.094;12.434;2023-06-22T03:30:18;12.70;;;8.68;;
61572;SDS011;47465;43.094;12.434;2023-06-22T03:32:43;13.43;;;9.07;;
61572;SDS011;47465;43.094;12.434;2023-06-22T03:35:09;13.50;;;9.23;;
61572;SDS011;47465;43.094;12.434;2023-06-22T03:37:38;14.48;;;8.95;;
61572;SDS011;47465;43.094;12.434;2023-06-22T03:40:04;12.48;;;8.57;;
61572;SDS011;47465;43.094;12.434;2023-06-22T03:42:31;16.30;;;8.60;;
61572;SDS011;47465;43.094;12.434;2023-06-22T03:44:58;13.10;;;8.45;;
61572;SDS011;47465;43.094;12.434;2023-06-22T03:47:27;14.90;;;9.15;;
61572;SDS011;47465;43.094;12.434;2023-06-22T03:49:53;14.98;;;8.73;;
61572;SDS011;47465;43.094;12.434;2023-06-22T03:52:20;12.60;;;8.50;;
61572;SDS011;47465;43.094;12.434;2023-06-22T03:54:46;13.60;;;8.38;;
61572;SDS011;47465;43.094;12.434;2023-06-22T03:57:11;12.73;;;8.10;;
61572;SDS011;47465;43.094;12.434;2023-06-22T03:59:37;11.63;;;8.27;;
61572;SDS011;47465;43.094;12.434;2023-06-22T04:02:03;13.40;;;8.40;;
61572;SDS011;47465;43.094;12.434;2023-06-22T04:04:31;13.63;;;8.35;;
61572;SDS011;47465;43.094;12.434;2023-06-22T04:06:56;19.08;;;8.15;;
61572;SDS011;47465;43.094;12.434;2023-06-22T04:09:23;12.98;;;8.68;;
61572;SDS011;47465;43.094;12.434;2023-06-22T04:11:49;13.60;;;9.15;;
61572;SDS011;47465;43.094;12.434;2023-06-22T04:14:15;14.32;;;9.05;;
61572;SDS011;47465;43.094;12.434;2023-06-22T04:16:40;12.60;;;8.52;;
61572;SDS011;47465;43.094;12.434;2023-06-22T04:19:06;13.05;;;8.90;;
61572;SDS011;47465;43.094;12.434;2023-06-22T04:21:34;14.25;;;9.77;;
61572;SDS011;47465;43.094;12.434;2023-06-22T04:23:59;16.25;;;9.65;;
61572;SDS011;47465;43.094;12.434;2023-06-22T04:26:25;14.57;;;9.40;;
61572;SDS011;47465;43.094;12.434;2023-06-22T04:28:51;15.48;;;9.38;;
61572;SDS011;47465;43.094;12.434;2023-06-22T04:31:20;16.13;;;9.50;;
61572;SDS011;47465;43.094;12.434;2023-06-22T04:33:46;15.48;;;10.07;;
61572;SDS011;47465;43.094;12.434;2023-06-22T04:36:12;15.48;;;9.52;;
61572;SDS011;47465;43.094;12.434;2023-06-22T04:38:41;17.63;;;10.02;;
61572;SDS011;47465;43.094;12.434;2023-06-22T04:41:07;19.63;;;9.70;;
61572;SDS011;47465;43.094;12.434;2023-06-22T04:43:39;15.15;;;9.60;;
61572;SDS011;47465;43.094;12.434;2023-06-22T04:46:05;16.92;;;10.15;;
61572;SDS011;47465;43.094;12.434;2023-06-22T04:48:30;17.17;;;10.30;;
61572;SDS011;47465;43.094;12.434;2023-06-22T04:50:58;16.95;;;9.75;;
61572;SDS011;47465;43.094;12.434;2023-06-22T04:53:28;18.30;;;10.40;;
61572;SDS011;47465;43.094;12.434;2023-06-22T04:55:56;17.15;;;10.10;;
61572;SDS011;47465;43.094;12.434;2023-06-22T04:58:22;18.88;;;10.75;;
61572;SDS011;47465;43.094;12.434;2023-06-22T05:00:48;14.85;;;9.82;;
61572;SDS011;47465;43.094;12.434;2023-06-22T05:03:17;16.08;;;9.77;;
61572;SDS011;47465;43.094;12.434;2023-06-22T05:05:43;19.60;;;10.80;;
61572;SDS011;47465;43.094;12.434;2023-06-22T05:08:09;20.55;;;11.05;;
61572;SDS011;47465;43.094;12.434;2023-06-22T05:10:35;18.10;;;11.05;;
61572;SDS011;47465;43.094;12.434;2023-06-22T05:13:03;18.13;;;10.80;;
61572;SDS011;47465;43.094;12.434;2023-06-22T05:15:28;20.00;;;10.45;;
61572;SDS011;47465;43.094;12.434;2023-06-22T05:17:55;18.15;;;11.07;;
61572;SDS011;47465;43.094;12.434;2023-06-22T05:20:21;17.48;;;11.55;;
61572;SDS011;47465;43.094;12.434;2023-06-22T05:22:47;19.95;;;10.88;;
61572;SDS011;47465;43.094;12.434;2023-06-22T05:25:13;17.08;;;10.75;;
61572;SDS011;47465;43.094;12.434;2023-06-22T05:27:39;18.42;;;10.77;;
61572;SDS011;47465;43.094;12.434;2023-06-22T05:30:07;19.58;;;10.90;;
61572;SDS011;47465;43.094;12.434;2023-06-22T05:32:34;17.42;;;10.82;;
61572;SDS011;47465;43.094;12.434;2023-06-22T05:35:00;22.27;;;11.15;;
61572;SDS011;47465;43.094;12.434;2023-06-22T05:37:26;19.13;;;11.88;;
61572;SDS011;47465;43.094;12.434;2023-06-22T05:39:53;22.53;;;11.80;;
61572;SDS011;47465;43.094;12.434;2023-06-22T05:42:20;18.95;;;12.45;;
61572;SDS011;47465;43.094;12.434;2023-06-22T05:44:47;21.20;;;12.68;;
61572;SDS011;47465;43.094;12.434;2023-06-22T05:47:14;19.23;;;11.88;;
61572;SDS011;47465;43.094;12.434;2023-06-22T05:49:40;22.08;;;12.02;;
61572;SDS011;47465;43.094;12.434;2023-06-22T05:52:06;23.13;;;12.32;;
61572;SDS011;47465;43.094;12.434;2023-06-22T05:54:32;24.00;;;12.15;;
61572;SDS011;47465;43.094;12.434;2023-06-22T05:56:58;20.83;;;11.55;;
61572;SDS011;47465;43.094;12.434;2023-06-22T05:59:24;21.45;;;12.23;;
61572;SDS011;47465;43.094;12.434;2023-06-22T06:01:49;19.17;;;12.50;;
61572;SDS011;47465;43.094;12.434;2023-06-22T06:04:17;21.88;;;12.27;;
61572;SDS011;47465;43.094;12.434;2023-06-22T06:06:43;21.25;;;12.15;;
61572;SDS011;47465;43.094;12.434;2023-06-22T06:09:09;19.60;;;12.00;;
61572;SDS011;47465;43.094;12.434;2023-06-22T06:11:36;20.60;;;12.25;;
61572;SDS011;47465;43.094;12.434;2023-06-22T06:14:02;27.58;;;12.80;;
61572;SDS011;47465;43.094;12.434;2023-06-22T06:16:28;26.77;;;13.45;;
61572;SDS011;47465;43.094;12.434;2023-06-22T06:18:54;24.38;;;12.60;;
61572;SDS011;47465;43.094;12.434;2023-06-22T06:21:22;26.35;;;12.60;;
61572;SDS011;47465;43.094;12.434;2023-06-22T06:23:48;24.70;;;12.75;;
61572;SDS011;47465;43.094;12.434;2023-06-22T06:26:14;24.73;;;13.45;;
61572;SDS011;47465;43.094;12.434;2023-06-22T06:28:41;27.27;;;14.40;;
61572;SDS011;47465;43.094;12.434;2023-06-22T06:31:08;28.15;;;14.55;;
61572;SDS011;47465;43.094;12.434;2023-06-22T06:33:34;25.30;;;13.55;;
61572;SDS011;47465;43.094;12.434;2023-06-22T06:36:00;27.80;;;12.77;;
61572;SDS011;47465;43.094;12.434;2023-06-22T06:38:29;26.88;;;13.13;;
61572;SDS011;47465;43.094;12.434;2023-06-22T06:40:56;24.00;;;12.68;;
61572;SDS011;47465;43.094;12.434;2023-06-22T06:43:21;25.65;;;13.25;;
61572;SDS011;47465;43.094;12.434;2023-06-22T06:45:48;25.70;;;13.65;;
61572;SDS011;47465;43.094;12.434;2023-06-22T06:48:14;28.58;;;12.93;;
61572;SDS011;47465;43.094;12.434;2023-06-22T06:50:40;28.65;;;13.52;;
61572;SDS011;47465;43.094;12.434;2023-06-22T06:53:06;27.73;;;14.73;;
61572;SDS011;47465;43.094;12.434;2023-06-22T06:55:33;24.50;;;13.48;;
61572;SDS011;47465;43.094;12.434;2023-06-22T06:57:59;24.85;;;13.18;;
61572;SDS011;47465;43.094;12.434;2023-06-22T07:00:25;24.45;;;12.88;;
61572;SDS011;47465;43.094;12.434;2023-06-22T07:02:51;25.40;;;13.85;;
61572;SDS011;47465;43.094;12.434;2023-06-22T07:05:17;26.98;;;14.80;;
61572;SDS011;47465;43.094;12.434;2023-06-22T07:07:42;24.10;;;13.70;;
61572;SDS011;47465;43.094;12.434;2023-06-22T07:10:09;29.23;;;14.50;;
61572;SDS011;47465;43.094;12.434;2023-06-22T07:12:36;28.65;;;14.32;;
61572;SDS011;47465;43.094;12.434;2023-06-22T07:15:02;30.02;;;15.18;;
61572;SDS011;47465;43.094;12.434;2023-06-22T07:17:29;35.15;;;14.65;;
61572;SDS011;47465;43.094;12.434;2023-06-22T07:19:55;32.75;;;14.52;;
61572;SDS011;47465;43.094;12.434;2023-06-22T07:22:21;25.10;;;14.40;;
61572;SDS011;47465;43.094;12.434;2023-06-22T07:24:47;26.70;;;15.05;;
61572;SDS011;47465;43.094;12.434;2023-06-22T07:27:14;26.45;;;15.00;;
61572;SDS011;47465;43.094;12.434;2023-06-22T07:29:45;27.17;;;14.60;;
61572;SDS011;47465;43.094;12.434;2023-06-22T07:32:11;31.30;;;15.37;;
61572;SDS011;47465;43.094;12.434;2023-06-22T07:34:36;39.85;;;17.40;;
61572;SDS011;47465;43.094;12.434;2023-06-22T07:37:02;28.45;;;15.27;;
61572;SDS011;47465;43.094;12.434;2023-06-22T07:39:29;30.30;;;15.32;;
61572;SDS011;47465;43.094;12.434;2023-06-22T07:41:55;34.30;;;16.23;;
61572;SDS011;47465;43.094;12.434;2023-06-22T07:44:21;34.58;;;15.10;;
61572;SDS011;47465;43.094;12.434;2023-06-22T07:46:49;28.25;;;15.98;;
61572;SDS011;47465;43.094;12.434;2023-06-22T07:49:15;35.38;;;15.68;;
61572;SDS011;47465;43.094;12.434;2023-06-22T07:51:42;31.48;;;15.70;;
61572;SDS011;47465;43.094;12.434;2023-06-22T07:54:08;35.65;;;16.50;;
61572;SDS011;47465;43.094;12.434;2023-06-22T07:56:35;28.75;;;16.13;;
61572;SDS011;47465;43.094;12.434;2023-06-22T07:59:01;31.85;;;16.00;;
61572;SDS011;47465;43.094;12.434;2023-06-22T08:01:28;31.13;;;15.75;;
61572;SDS011;47465;43.094;12.434;2023-06-22T08:03:56;32.90;;;15.18;;
61572;SDS011;47465;43.094;12.434;2023-06-22T08:06:22;30.88;;;15.55;;
61572;SDS011;47465;43.094;12.434;2023-06-22T08:08:47;34.65;;;16.10;;
61572;SDS011;47465;43.094;12.434;2023-06-22T08:11:14;32.67;;;16.40;;
61572;SDS011;47465;43.094;12.434;2023-06-22T08:13:40;30.30;;;16.00;;
61572;SDS011;47465;43.094;12.434;2023-06-22T08:16:06;32.83;;;16.25;;
61572;SDS011;47465;43.094;12.434;2023-06-22T08:18:32;40.88;;;15.68;;
61572;SDS011;47465;43.094;12.434;2023-06-22T08:21:00;30.48;;;14.98;;
61572;SDS011;47465;43.094;12.434;2023-06-22T08:23:25;34.58;;;14.52;;
61572;SDS011;47465;43.094;12.434;2023-06-22T08:25:51;28.40;;;15.40;;
61572;SDS011;47465;43.094;12.434;2023-06-22T08:28:17;31.92;;;15.07;;
61572;SDS011;47465;43.094;12.434;2023-06-22T08:30:43;31.15;;;15.57;;
61572;SDS011;47465;43.094;12.434;2023-06-22T08:33:09;44.45;;;22.05;;
61572;SDS011;47465;43.094;12.434;2023-06-22T08:35:35;31.88;;;16.90;;
61572;SDS011;47465;43.094;12.434;2023-06-22T08:38:02;35.80;;;15.50;;
61572;SDS011;47465;43.094;12.434;2023-06-22T08:40:34;30.33;;;16.02;;
61572;SDS011;47465;43.094;12.434;2023-06-22T08:43:09;36.78;;;15.43;;
61572;SDS011;47465;43.094;12.434;2023-06-22T08:45:36;31.58;;;15.50;;
61572;SDS011;47465;43.094;12.434;2023-06-22T08:48:03;35.25;;;16.15;;
61572;SDS011;47465;43.094;12.434;2023-06-22T08:50:31;28.70;;;15.57;;
61572;SDS011;47465;43.094;12.434;2023-06-22T08:53:02;34.47;;;16.05;;
61572;SDS011;47465;43.094;12.434;2023-06-22T08:55:28;36.88;;;15.55;;
61572;SDS011;47465;43.094;12.434;2023-06-22T08:57:54;28.95;;;13.88;;
61572;SDS011;47465;43.094;12.434;2023-06-22T09:00:20;34.58;;;16.77;;
61572;SDS011;47465;43.094;12.434;2023-06-22T09:02:46;32.08;;;14.50;;
61572;SDS011;47465;43.094;12.434;2023-06-22T09:05:12;29.38;;;14.13;;
61572;SDS011;47465;43.094;12.434;2023-06-22T09:07:38;36.53;;;14.82;;
61572;SDS011;47465;43.094;12.434;2023-06-22T09:10:07;35.17;;;14.88;;
61572;SDS011;47465;43.094;12.434;2023-06-22T09:12:33;39.05;;;16.25;;
61572;SDS011;47465;43.094;12.434;2023-06-22T09:14:59;31.00;;;13.85;;
61572;SDS011;47465;43.094;12.434;2023-06-22T09:17:25;35.03;;;15.00;;
61572;SDS011;47465;43.094;12.434;2023-06-22T09:19:52;32.83;;;13.63;;
61572;SDS011;47465;43.094;12.434;2023-06-22T09:22:17;40.10;;;15.60;;
61572;SDS011;47465;43.094;12.434;2023-06-22T09:24:43;33.17;;;14.07;;
61572;SDS011;47465;43.094;12.434;2023-06-22T09:27:11;32.85;;;13.75;;
61572;SDS011;47465;43.094;12.434;2023-06-22T09:29:37;36.17;;;14.90;;
61572;SDS011;47465;43.094;12.434;2023-06-22T09:32:03;31.45;;;13.20;;
61572;SDS011;47465;43.094;12.434;2023-06-22T09:34:29;33.13;;;13.20;;
61572;SDS011;47465;43.094;12.434;2023-06-22T09:36:56;34.20;;;13.03;;
61572;SDS011;47465;43.094;12.434;2023-06-22T09:39:22;30.77;;;13.68;;
61572;SDS011;47465;43.094;12.434;2023-06-22T09:41:48;32.85;;;13.20;;
61572;SDS011;47465;43.094;12.434;2023-06-22T09:44:16;28.38;;;12.43;;
61572;SDS011;47465;43.094;12.434;2023-06-22T09:46:41;26.90;;;13.48;;
61572;SDS011;47465;43.094;12.434;2023-06-22T09:49:07;24.90;;;12.80;;
61572;SDS011;47465;43.094;12.434;2023-06-22T09:51:33;28.23;;;13.82;;
61572;SDS011;47465;43.094;12.434;2023-06-22T09:53:59;35.20;;;12.43;;
61572;SDS011;47465;43.094;12.434;2023-06-22T09:56:25;29.75;;;12.63;;
61572;SDS011;47465;43.094;12.434;2023-06-22T09:58:53;31.30;;;13.23;;
61572;SDS011;47465;43.094;12.434;2023-06-22T10:01:20;29.90;;;13.52;;
61572;SDS011;47465;43.094;12.434;2023-06-22T10:03:46;28.42;;;12.90;;
61572;SDS011;47465;43.094;12.434;2023-06-22T10:06:12;38.70;;;13.45;;
61572;SDS011;47465;43.094;12.434;2023-06-22T10:08:38;30.75;;;13.15;;
61572;SDS011;47465;43.094;12.434;2023-06-22T10:11:05;28.90;;;12.53;;
61572;SDS011;47465;43.094;12.434;2023-06-22T10:13:31;28.33;;;13.68;;
61572;SDS011;47465;43.094;12.434;2023-06-22T10:15:57;26.35;;;13.10;;
61572;SDS011;47465;43.094;12.434;2023-06-22T10:18:24;27.10;;;12.07;;
61572;SDS011;47465;43.094;12.434;2023-06-22T10:20:50;31.30;;;12.17;;
61572;SDS011;47465;43.094;12.434;2023-06-22T10:23:17;26.45;;;11.50;;
61572;SDS011;47465;43.094;12.434;2023-06-22T10:25:43;28.20;;;11.85;;
61572;SDS011;47465;43.094;12.434;2023-06-22T10:28:09;26.48;;;11.13;;
61572;SDS011;47465;43.094;12.434;2023-06-22T10:30:35;23.05;;;11.23;;
61572;SDS011;47465;43.094;12.434;2023-06-22T10:33:00;22.17;;;11.82;;
61572;SDS011;47465;43.094;12.434;2023-06-22T10:35:28;26.15;;;10.77;;
61572;SDS011;47465;43.094;12.434;2023-06-22T10:37:54;23.13;;;11.00;;
61572;SDS011;47465;43.094;12.434;2023-06-22T10:40:21;27.27;;;10.60;;
61572;SDS011;47465;43.094;12.434;2023-06-22T10:42:47;23.15;;;10.40;;
61572;SDS011;47465;43.094;12.434;2023-06-22T10:45:13;31.90;;;11.65;;
61572;SDS011;47465;43.094;12.434;2023-06-22T10:47:39;23.38;;;9.20;;
61572;SDS011;47465;43.094;12.434;2023-06-22T10:50:07;19.65;;;8.48;;
61572;SDS011;47465;43.094;12.434;2023-06-22T10:52:35;22.13;;;9.73;;
61572;SDS011;47465;43.094;12.434;2023-06-22T10:55:01;19.42;;;9.60;;
61572;SDS011;47465;43.094;12.434;2023-06-22T10:57:26;18.48;;;9.57;;
61572;SDS011;47465;43.094;12.434;2023-06-22T10:59:52;18.85;;;9.40;;
61572;SDS011;47465;43.094;12.434;2023-06-22T11:02:18;19.45;;;8.63;;
61572;SDS011;47465;43.094;12.434;2023-06-22T11:04:44;19.48;;;10.13;;
61572;SDS011;47465;43.094;12.434;2023-06-22T11:07:11;17.98;;;9.18;;
61572;SDS011;47465;43.094;12.434;2023-06-22T11:09:38;18.08;;;8.30;;
61572;SDS011;47465;43.094;12.434;2023-06-22T11:12:05;19.00;;;8.07;;
61572;SDS011;47465;43.094;12.434;2023-06-22T11:14:32;19.20;;;7.83;;
61572;SDS011;47465;43.094;12.434;2023-06-22T11:16:58;18.60;;;7.68;;
61572;SDS011;47465;43.094;12.434;2023-06-22T11:19:24;15.20;;;7.22;;
61572;SDS011;47465;43.094;12.434;2023-06-22T11:21:50;12.20;;;6.60;;
61572;SDS011;47465;43.094;12.434;2023-06-22T11:24:16;14.18;;;6.20;;
61572;SDS011;47465;43.094;12.434;2023-06-22T11:26:44;18.23;;;6.50;;
61572;SDS011;47465;43.094;12.434;2023-06-22T11:29:10;16.97;;;7.03;;
61572;SDS011;47465;43.094;12.434;2023-06-22T11:31:36;19.33;;;6.97;;
61572;SDS011;47465;43.094;12.434;2023-06-22T11:34:02;11.95;;;6.43;;
61572;SDS011;47465;43.094;12.434;2023-06-22T11:36:28;17.52;;;6.32;;
61572;SDS011;47465;43.094;12.434;2023-06-22T11:38:54;14.60;;;6.03;;
61572;SDS011;47465;43.094;12.434;2023-06-22T11:41:20;10.50;;;5.88;;
61572;SDS011;47465;43.094;12.434;2023-06-22T11:43:48;15.57;;;5.93;;
61572;SDS011;47465;43.094;12.434;2023-06-22T11:46:14;13.10;;;6.47;;
61572;SDS011;47465;43.094;12.434;2023-06-22T11:48:40;13.18;;;6.22;;
61572;SDS011;47465;43.094;12.434;2023-06-22T11:51:05;19.20;;;7.20;;
61572;SDS011;47465;43.094;12.434;2023-06-22T11:53:33;17.30;;;7.30;;
61572;SDS011;47465;43.094;12.434;2023-06-22T11:56:00;11.77;;;6.63;;
61572;SDS011;47465;43.094;12.434;2023-06-22T11:58:26;19.02;;;7.03;;
61572;SDS011;47465;43.094;12.434;2023-06-22T12:00:54;15.40;;;6.60;;
61572;SDS011;47465;43.094;12.434;2023-06-22T12:03:20;16.73;;;6.43;;
61572;SDS011;47465;43.094;12.434;2023-06-22T12:05:47;14.00;;;6.78;;
61572;SDS011;47465;43.094;12.434;2023-06-22T12:08:13;17.13;;;7.47;;
61572;SDS011;47465;43.094;12.434;2023-06-22T12:10:39;14.00;;;6.07;;
61572;SDS011;47465;43.094;12.434;2023-06-22T12:13:05;12.63;;;5.80;;
61572;SDS011;47465;43.094;12.434;2023-06-22T12:15:31;13.18;;;4.82;;
61572;SDS011;47465;43.094;12.434;2023-06-22T12:17:58;10.90;;;5.40;;
61572;SDS011;47465;43.094;12.434;2023-06-22T12:20:24;9.38;;;5.40;;
61572;SDS011;47465;43.094;12.434;2023-06-22T12:22:50;12.52;;;5.18;;
61572;SDS011;47465;43.094;12.434;2023-06-22T12:25:17;16.17;;;5.07;;
61572;SDS011;47465;43.094;12.434;2023-06-22T12:27:43;10.40;;;4.95;;
61572;SDS011;47465;43.094;12.434;2023-06-22T12:30:09;11.13;;;5.07;;
61572;SDS011;47465;43.094;12.434;2023-06-22T12:32:35;13.98;;;4.18;;
61572;SDS011;47465;43.094;12.434;2023-06-22T12:35:02;12.98;;;4.90;;
61572;SDS011;47465;43.094;12.434;2023-06-22T12:37:28;14.90;;;4.85;;
61572;SDS011;47465;43.094;12.434;2023-06-22T12:39:56;16.02;;;5.03;;
61572;SDS011;47465;43.094;12.434;2023-06-22T12:42:22;13.20;;;5.13;;
61572;SDS011;47465;43.094;12.434;2023-06-22T12:44:48;11.98;;;5.10;;
61572;SDS011;47465;43.094;12.434;2023-06-22T12:47:14;10.15;;;4.38;;
61572;SDS011;47465;43.094;12.434;2023-06-22T12:49:40;12.43;;;5.25;;
61572;SDS011;47465;43.094;12.434;2023-06-22T12:52:10;13.25;;;5.25;;
61572;SDS011;47465;43.094;12.434;2023-06-22T12:57:02;17.92;;;5.35;;
61572;SDS011;47465;43.094;12.434;2023-06-22T12:59:28;16.35;;;5.50;;
61572;SDS011;47465;43.094;12.434;2023-06-22T13:01:54;18.10;;;6.30;;
61572;SDS011;47465;43.094;12.434;2023-06-22T13:04:20;12.18;;;5.18;;
61572;SDS011;47465;43.094;12.434;2023-06-22T13:06:46;12.40;;;5.65;;
61572;SDS011;47465;43.094;12.434;2023-06-22T13:09:14;17.38;;;5.45;;
61572;SDS011;47465;43.094;12.434;2023-06-22T13:11:41;14.00;;;5.57;;
61572;SDS011;47465;43.094;12.434;2023-06-22T13:14:07;13.02;;;5.57;;
61572;SDS011;47465;43.094;12.434;2023-06-22T13:16:33;13.15;;;5.57;;
61572;SDS011;47465;43.094;12.434;2023-06-22T13:18:59;15.27;;;5.60;;
61572;SDS011;47465;43.094;12.434;2023-06-22T13:21:25;13.25;;;5.03;;
61572;SDS011;47465;43.094;12.434;2023-06-22T13:23:51;16.42;;;5.57;;
61572;SDS011;47465;43.094;12.434;2023-06-22T13:26:18;14.77;;;5.03;;
61572;SDS011;47465;43.094;12.434;2023-06-22T13:28:46;14.82;;;5.53;;
61572;SDS011;47465;43.094;12.434;2023-06-22T13:31:12;13.30;;;5.05;;
61572;SDS011;47465;43.094;12.434;2023-06-22T13:33:38;16.73;;;5.53;;
61572;SDS011;47465;43.094;12.434;2023-06-22T13:38:31;11.32;;;5.10;;
61572;SDS011;47465;43.094;12.434;2023-06-22T13:40:57;18.25;;;4.90;;
61572;SDS011;47465;43.094;12.434;2023-06-22T13:43:26;14.05;;;5.38;;
61572;SDS011;47465;43.094;12.434;2023-06-22T13:45:52;14.05;;;4.78;;
61572;SDS011;47465;43.094;12.434;2023-06-22T13:48:18;13.02;;;4.40;;
61572;SDS011;47465;43.094;12.434;2023-06-22T13:50:44;12.52;;;4.70;;
61572;SDS011;47465;43.094;12.434;2023-06-22T13:53:09;16.08;;;4.85;;
61572;SDS011;47465;43.094;12.434;2023-06-22T13:55:35;18.05;;;4.45;;
61572;SDS011;47465;43.094;12.434;2023-06-22T13:58:01;17.92;;;4.30;;
61572;SDS011;47465;43.094;12.434;2023-06-22T14:00:28;16.27;;;4.40;;
61572;SDS011;47465;43.094;12.434;2023-06-22T14:02:54;15.23;;;4.55;;
61572;SDS011;47465;43.094;12.434;2023-06-22T14:05:20;16.02;;;4.53;;
61572;SDS011;47465;43.094;12.434;2023-06-22T14:07:46;11.60;;;4.35;;
61572;SDS011;47465;43.094;12.434;2023-06-22T14:10:12;16.38;;;5.18;;
61572;SDS011;47465;43.094;12.434;2023-06-22T14:12:38;16.33;;;4.32;;
61572;SDS011;47465;43.094;12.434;2023-06-22T14:15:04;13.45;;;4.55;;
61572;SDS011;47465;43.094;12.434;2023-06-22T14:17:32;21.07;;;4.83;;
61572;SDS011;47465;43.094;12.434;2023-06-22T14:19:58;19.05;;;5.00;;
61572;SDS011;47465;43.094;12.434;2023-06-22T14:22:24;15.77;;;4.60;;